Dades meteomassalio
Diari Summary for Agost 6, 2017 Units:  Metric    English   Both
« Previous Day
Next Day »
Diari Semanal Mensual Anual Personalitzat
  Maxima: Minima: Mijana:
Temperatura: -17.8 °C -7.1 °C -4.1 °C
Rosada: -17.8 °C -10.3 °C -9.1 °C
Humitat: Humidity % 38 % 58 %
Velocitat del vent: 0 km/h 0 km/h 19.3 km/h
Racha vent: 0 km/h - -
Vent:- - SSW
Pressio: 0 hPa 34337.4 hPa -
Pluja: 0 mm    
Historical Graphs
 
 
Tabular Data for Agost 6, 2017
Time Temperature Dew Point Pressure Wind Wind Speed Wind Gust Humidity Rainfall Rate (Hourly) solar Conditions
-17.8 °C -17.8 °C 0 hPa Calm     Humidity % 0 mm SolarRadiationWatts/m^2 W/m2 Conditions
00:04 -4.3 °C -9.3 °C 34371.3 hPa WSW 9 km/h 9 km/h 57 % 0 mm 0.0 W/m2 CLR
00:09 -4.3 °C -9.3 °C 34384.8 hPa WNW 29.8 km/h 29.8 km/h 57 % 0 mm 0.0 W/m2 CLR
00:14 -4.4 °C -9.4 °C 34384.8 hPa WSW 20.9 km/h 20.9 km/h 57 % 0 mm 0.0 W/m2 CLR
00:19 -4.4 °C -9.5 °C 34384.8 hPa West 32.8 km/h 32.8 km/h 57 % 0 mm 0.0 W/m2 CLR
00:24 -4.6 °C -9.6 °C 34384.8 hPa WNW 50.7 km/h 50.7 km/h 57 % 0 mm 0.0 W/m2 CLR
00:29 -4.6 °C -9.5 °C 34384.8 hPa West 9 km/h 9 km/h 58 % 0 mm 0.0 W/m2 CLR
00:34 -4.7 °C -9.5 °C 34384.8 hPa West 29.8 km/h 29.8 km/h 58 % 0 mm 0.0 W/m2 CLR
00:39 -4.7 °C -9.6 °C 34384.8 hPa WSW 26.9 km/h 26.9 km/h 58 % 0 mm 0.0 W/m2 CLR
00:44 -4.8 °C -9.5 °C 34384.8 hPa WSW 35.7 km/h 35.7 km/h 59 % 0 mm 0.0 W/m2 CLR
00:49 -4.8 °C -9.6 °C 34384.8 hPa WNW 15.6 km/h 15.6 km/h 59 % 0 mm 0.0 W/m2 CLR
00:54 -4.9 °C -9.6 °C 34384.8 hPa WNW 15 km/h 15 km/h 59 % 0 mm 0.0 W/m2 CLR
00:59 -4.9 °C -9.7 °C 34384.8 hPa West 17.9 km/h 17.9 km/h 59 % 0 mm 0.0 W/m2 CLR
01:04 -5.1 °C -9.6 °C 34395 hPa WNW 29.8 km/h 29.8 km/h 60 % 0 mm 0.0 W/m2 CLR
01:09 -5.1 °C -9.7 °C 34395 hPa WNW 38.8 km/h 38.8 km/h 60 % 0 mm 0.0 W/m2 CLR
01:14 -5.2 °C -9.7 °C 34395 hPa West 33.6 km/h 33.6 km/h 60 % 0 mm 0.0 W/m2 CLR
01:24 -5.3 °C -9.8 °C 34395 hPa West 38.8 km/h 38.8 km/h 60 % 0 mm 0.0 W/m2 CLR
01:29 -5.3 °C -9.7 °C 34395 hPa West 29.8 km/h 29.8 km/h 61 % 0 mm 0.0 W/m2 CLR
01:34 -5.4 °C -9.8 °C 34395 hPa West 38.8 km/h 38.8 km/h 61 % 0 mm 0.0 W/m2 CLR
01:39 -5.4 °C -9.8 °C 34395 hPa WSW 32.8 km/h 32.8 km/h 61 % 0 mm 0.0 W/m2 CLR
01:44 -5.4 °C -9.8 °C 34395 hPa West 29.8 km/h 29.8 km/h 61 % 0 mm 0.0 W/m2 CLR
01:49 -5.4 °C -9.8 °C 34395 hPa WNW 29.8 km/h 29.8 km/h 61 % 0 mm 0.0 W/m2 CLR
01:54 -5.4 °C -9.8 °C 34395 hPa WNW 17.9 km/h 17.9 km/h 61 % 0 mm 0.0 W/m2 CLR
01:59 -5.5 °C -9.7 °C 34395 hPa WNW 29.8 km/h 29.8 km/h 62 % 0 mm 0.0 W/m2 CLR
02:04 -5.5 °C -9.8 °C 34395 hPa Calm     62 % 0 mm 0.0 W/m2 CLR
02:09 -5.6 °C -9.8 °C 34395 hPa West 9 km/h 9 km/h 62 % 0 mm 0.0 W/m2 CLR
02:19 -5.6 °C -9.8 °C 34384.8 hPa Calm     62 % 0 mm 0.0 W/m2 CLR
02:24 -5.7 °C -9.7 °C 34384.8 hPa NW 9 km/h   63 % 0 mm 0.0 W/m2 CLR
02:29 -5.7 °C -9.8 °C 34384.8 hPa Calm     63 % 0 mm 0.0 W/m2 CLR
02:34 -5.7 °C -9.8 °C 34395 hPa WNW 9 km/h   63 % 0 mm 0.0 W/m2 CLR
02:39 -5.8 °C -9.8 °C 34395 hPa West 17.9 km/h 17.9 km/h 63 % 0 mm 0.0 W/m2 CLR
02:44 -5.8 °C -9.9 °C 34395 hPa WNW 29.8 km/h 29.8 km/h 63 % 0 mm 0.0 W/m2 CLR
02:49 -5.9 °C -9.8 °C 34395 hPa West 26.9 km/h 26.9 km/h 64 % 0 mm 0.0 W/m2 CLR
02:54 -5.9 °C -9.9 °C 34395 hPa NW 25.9 km/h 25.9 km/h 64 % 0 mm 0.0 W/m2 CLR
02:59 -6 °C -9.9 °C 34395 hPa WNW 23.8 km/h 23.8 km/h 64 % 0 mm 0.0 W/m2 CLR
03:04 -6.1 °C -9.8 °C 34395 hPa Calm   1.6 km/h 65 % 0 mm 0.0 W/m2 CLR
03:09 -6.1 °C -9.9 °C 34395 hPa WNW 20.9 km/h 20.9 km/h 65 % 0 mm 0.0 W/m2 CLR
03:14 -6.1 °C -9.9 °C 34395 hPa NW 20.9 km/h 20.9 km/h 65 % 0 mm 0.0 W/m2 CLR
03:19 -6.2 °C -9.9 °C 34395 hPa WNW 5.1 km/h 5.1 km/h 65 % 0 mm 0.0 W/m2 CLR
03:29 -6.2 °C -10.1 °C 34395 hPa WNW 9 km/h   65 % 0 mm 0.0 W/m2 CLR
03:34 -6.3 °C -9.9 °C 34395 hPa West 9 km/h 9 km/h 66 % 0 mm 0.0 W/m2 CLR
03:43 -6.3 °C -10 °C 34395 hPa West 15 km/h 15 km/h 66 % 0 mm 0.0 W/m2 CLR
03:48 -6.4 °C -10.1 °C 34395 hPa West 15 km/h 15 km/h 66 % 0 mm 0.0 W/m2 CLR
03:53 -6.4 °C -10.1 °C 34395 hPa West 26.9 km/h 26.9 km/h 66 % 0 mm 0.0 W/m2 CLR
03:58 -6.5 °C -10.1 °C 34395 hPa West 15 km/h 15 km/h 66 % 0 mm 0.0 W/m2 CLR
04:03 -6.5 °C -10.2 °C 34405.1 hPa West 15 km/h 15 km/h 66 % 0 mm 0.0 W/m2 CLR
04:08 -6.5 °C -10.1 °C 34395 hPa WNW 20.9 km/h 20.9 km/h 67 % 0 mm 0.0 W/m2 CLR
04:13 -6.6 °C -10.1 °C 34395 hPa West 17.9 km/h 17.9 km/h 67 % 0 mm 0.0 W/m2 CLR
04:18 -6.6 °C -10.1 °C 34395 hPa West 15 km/h 15 km/h 67 % 0 mm 0.0 W/m2 CLR
04:23 -6.6 °C -10.1 °C 34405.1 hPa WNW 23.8 km/h 23.8 km/h 67 % 0 mm 0.0 W/m2 CLR
04:28 -6.6 °C -10.2 °C 34405.1 hPa WNW 23.3 km/h 23.3 km/h 67 % 0 mm 0.0 W/m2 CLR
04:38 -6.7 °C -10.2 °C 34405.1 hPa WNW 15.6 km/h 15.6 km/h 67 % 0 mm 0.0 W/m2 CLR
04:43 -6.7 °C -10.2 °C 34405.1 hPa WNW 12.9 km/h 12.9 km/h 67 % 0 mm 0.0 W/m2 CLR
04:48 -6.8 °C -10.1 °C 34405.1 hPa WNW 28.5 km/h 28.5 km/h 68 % 0 mm 0.0 W/m2 CLR
04:53 -6.8 °C -10.2 °C 34405.1 hPa WNW 26.9 km/h 26.9 km/h 68 % 0 mm 0.0 W/m2 CLR
04:58 -6.8 °C -10.2 °C 34405.1 hPa West 20.9 km/h 20.9 km/h 68 % 0 mm 0.0 W/m2 CLR
05:03 -6.8 °C -10.1 °C 34418.7 hPa West 9 km/h 9 km/h 69 % 0 mm 0.0 W/m2 CLR
05:08 -6.9 °C -10.1 °C 34405.1 hPa Calm     69 % 0 mm 0.0 W/m2 CLR
05:13 -6.9 °C -10.1 °C 34418.7 hPa WSW 9 km/h   69 % 0 mm 0.0 W/m2 CLR
05:18 -6.9 °C -10.2 °C 34418.7 hPa WSW 9 km/h 9 km/h 69 % 0 mm 0.0 W/m2 CLR
05:23 -6.9 °C -10.2 °C 34418.7 hPa WNW 23.8 km/h 23.8 km/h 69 % 0 mm 0.0 W/m2 CLR
05:28 -6.9 °C -10.2 °C 34418.7 hPa West 11.9 km/h 11.9 km/h 69 % 0 mm 0.0 W/m2 CLR
05:33 -7 °C -10.2 °C 34418.7 hPa West 17.9 km/h 17.9 km/h 69 % 0 mm 0.0 W/m2 CLR
05:38 -7 °C -10.2 °C 34418.7 hPa WSW 15 km/h 15 km/h 69 % 0 mm 0.0 W/m2 CLR
05:43 -7 °C -10.2 °C 34418.7 hPa SW 15 km/h 15 km/h 69 % 0 mm 0.0 W/m2 CLR
05:48 -7 °C -10.2 °C 34418.7 hPa WSW 9 km/h 9 km/h 69 % 0 mm 0.0 W/m2 CLR
05:53 -7 °C -10.2 °C 34418.7 hPa WSW 7.7 km/h 7.7 km/h 69 % 0 mm 0.0 W/m2 CLR
05:58 -7.1 °C -10.3 °C 34418.7 hPa Calm     69 % 0 mm 0.0 W/m2 CLR
06:03 -7.1 °C -10.2 °C 34418.7 hPa WSW 9 km/h   70 % 0 mm 0.0 W/m2 CLR
06:08 -7.1 °C -10.2 °C 34428.8 hPa Calm     70 % 0 mm 0.0 W/m2 CLR
06:13 -7.1 °C -10.2 °C 34428.8 hPa Calm     70 % 0 mm 0.0 W/m2 CLR
06:18 -7.1 °C -10.2 °C 34428.8 hPa West 11.9 km/h 11.9 km/h 70 % 0 mm 0.0 W/m2 CLR
06:23 -7.1 °C -10.2 °C 34428.8 hPa West 9 km/h 9 km/h 70 % 0 mm 0.0 W/m2 CLR
06:28 -7.1 °C -10.2 °C 34428.8 hPa West 12.9 km/h 12.9 km/h 70 % 0 mm 0.0 W/m2 CLR
06:33 -7.1 °C -10.2 °C 34428.8 hPa WNW 18.2 km/h 18.2 km/h 70 % 0 mm 0.0 W/m2 CLR
06:38 -7.1 °C -10.2 °C 34442.4 hPa WNW 20.9 km/h 20.9 km/h 70 % 0 mm 0.0 W/m2 CLR
06:43 -7.1 °C -10.2 °C 34442.4 hPa West 7.7 km/h 7.7 km/h 70 % 0 mm 0.0 W/m2 CLR
06:48 -7.1 °C -10.2 °C 34442.4 hPa West 11.9 km/h 11.9 km/h 70 % 0 mm 0.0 W/m2 CLR
06:53 -7.1 °C -10.2 °C 34442.4 hPa West 15.6 km/h 15.6 km/h 70 % 0 mm 0.0 W/m2 CLR
06:58 -7.1 °C -10.2 °C 34442.4 hPa WSW 29.8 km/h 29.8 km/h 70 % 0 mm 0.0 W/m2 CLR
07:03 -7.1 °C -10.2 °C 34452.6 hPa West 15 km/h 15 km/h 70 % 0 mm 0.0 W/m2 OVC
07:08 -7.1 °C -10.2 °C 34452.6 hPa West 15 km/h 15 km/h 70 % 0 mm 5.0 W/m2 OVC
07:13 -7.1 °C -10.2 °C 34452.6 hPa West 15.6 km/h 15.6 km/h 70 % 0 mm 7.0 W/m2 BKN
07:18 -7.1 °C -10.2 °C 34452.6 hPa WSW 18.2 km/h 18.2 km/h 70 % 0 mm 12.0 W/m2 BKN
07:23 -7.1 °C -10.1 °C 34452.6 hPa WNW 38.8 km/h 38.8 km/h 71 % 0 mm 18.0 W/m2 BKN
07:28 -7.1 °C -10.1 °C 34452.6 hPa WNW 26.9 km/h 26.9 km/h 71 % 0 mm 21.0 W/m2 BKN
07:33 -7.1 °C -10.1 °C 34452.6 hPa WSW 23.3 km/h 23.3 km/h 71 % 0 mm 32.0 W/m2 BKN
07:38 -7.1 °C -10.1 °C 34452.6 hPa West 26.9 km/h 26.9 km/h 71 % 0 mm 44.0 W/m2 BKN
07:43 -7.1 °C -10.1 °C 34462.7 hPa West 29.8 km/h 29.8 km/h 71 % 0 mm 53.0 W/m2 SCT
07:48 -7.1 °C -10.1 °C 34462.7 hPa WNW 11.9 km/h 11.9 km/h 71 % 0 mm 53.0 W/m2 SCT
07:53 -7.1 °C -10.2 °C 34462.7 hPa West 15 km/h 15 km/h 70 % 0 mm 72.0 W/m2 FEW
07:58 -7 °C -10.1 °C 34462.7 hPa West 26.9 km/h 26.9 km/h 70 % 0 mm 83.0 W/m2 FEW
08:03 -7 °C -10.1 °C 34462.7 hPa West 17.9 km/h 17.9 km/h 70 % 0 mm 90.0 W/m2 FEW
08:08 -7 °C -10.1 °C 34462.7 hPa WNW 20.9 km/h 20.9 km/h 70 % 0 mm 79.0 W/m2 FEW
08:13 -7 °C -10.2 °C 34476.3 hPa West 38.8 km/h 38.8 km/h 69 % 0 mm 77.0 W/m2 FEW
08:18 -7.1 °C -10.3 °C 34476.3 hPa WNW 35.7 km/h 35.7 km/h 69 % 0 mm 44.0 W/m2 FEW
08:23 -7.1 °C -10.2 °C 34476.3 hPa WNW 23.8 km/h 23.8 km/h 70 % 0 mm 69.0 W/m2 FEW
08:28 -7.1 °C -10.2 °C 34476.3 hPa West 26.9 km/h 26.9 km/h 70 % 0 mm 134.0 W/m2 FEW
08:33 -7 °C -10.1 °C 34476.3 hPa WNW 38.8 km/h 38.8 km/h 70 % 0 mm 62.0 W/m2 FEW
08:38 -7 °C -10.2 °C 34476.3 hPa West 29.8 km/h 29.8 km/h 69 % 0 mm 62.0 W/m2 FEW
08:43 -7 °C -10.2 °C 34486.4 hPa NW 26.9 km/h 26.9 km/h 69 % 0 mm 60.0 W/m2 SCT
08:48 -7 °C -10.2 °C 34486.4 hPa West 29.8 km/h 29.8 km/h 69 % 0 mm 65.0 W/m2 SCT
08:53 -6.9 °C -10.2 °C 34486.4 hPa WNW 29.8 km/h 29.8 km/h 69 % 0 mm 123.0 W/m2 FEW
08:58 -6.9 °C -10.3 °C 34486.4 hPa West 44.7 km/h 44.7 km/h 68 % 0 mm 153.0 W/m2 CLR
09:03 -6.9 °C -10.2 °C 34486.4 hPa West 29.8 km/h 29.8 km/h 68 % 0 mm 155.0 W/m2 CLR
09:08 -6.8 °C -10.2 °C 34486.4 hPa West 20.9 km/h 20.9 km/h 68 % 0 mm 185.0 W/m2 CLR
09:13 -6.7 °C -10.2 °C 34486.4 hPa WNW 33.6 km/h 33.6 km/h 67 % 0 mm 285.0 W/m2 CLR
09:18 -6.7 °C -10.2 °C 34486.4 hPa West 29.8 km/h 29.8 km/h 67 % 0 mm 199.0 W/m2 CLR
09:23 -6.7 °C -10.2 °C 34486.4 hPa WNW 26.9 km/h 26.9 km/h 67 % 0 mm 216.0 W/m2 CLR
09:28 -6.6 °C -10.1 °C 34486.4 hPa WNW 29.8 km/h 29.8 km/h 67 % 0 mm 213.0 W/m2 CLR
09:33 -6.5 °C -10.2 °C 34486.4 hPa WNW 29.8 km/h 29.8 km/h 65 % 0 mm 223.0 W/m2 CLR
09:38 -6.4 °C -10.2 °C 34496.6 hPa West 32.8 km/h 32.8 km/h 65 % 0 mm 236.0 W/m2 CLR
09:43 -6.4 °C -10.1 °C 34496.6 hPa West 23.8 km/h 23.8 km/h 66 % 0 mm 225.0 W/m2 CLR
09:48 -6.3 °C -10.2 °C 34496.6 hPa West 35.7 km/h 35.7 km/h 65 % 0 mm 232.0 W/m2 CLR
09:53 -6.3 °C -10.2 °C 34496.6 hPa WNW 32.8 km/h 32.8 km/h 65 % 0 mm 237.0 W/m2 CLR
09:58 -6.3 °C -10.1 °C 34496.6 hPa West 15 km/h 15 km/h 65 % 0 mm 257.0 W/m2 CLR
10:03 -6.2 °C -10.2 °C 34496.6 hPa NNW 20.8 km/h 20.8 km/h 64 % 0 mm 251.0 W/m2 CLR
10:08 -6.1 °C -10.2 °C 34496.6 hPa WNW 25.9 km/h 25.9 km/h 63 % 0 mm 388.0 W/m2 CLR
10:13 -5.9 °C -10.2 °C 34496.6 hPa West 9 km/h   62 % 0 mm 309.0 W/m2 CLR
10:18 -5.8 °C -10.1 °C 34496.6 hPa WNW 20.8 km/h 20.8 km/h 62 % 0 mm 253.0 W/m2 CLR
10:23 -5.9 °C -10.2 °C 34496.6 hPa Calm     61 % 0 mm 272.0 W/m2 CLR
10:28 -5.9 °C -10.2 °C 34496.6 hPa NW 23.8 km/h 23.8 km/h 61 % 0 mm 308.0 W/m2 CLR
10:33 -5.9 °C -10.2 °C 34496.6 hPa WSW 20.9 km/h 20.9 km/h 61 % 0 mm 325.0 W/m2 CLR
10:38 -5.9 °C -10.1 °C 34496.6 hPa WSW 11.9 km/h 11.9 km/h 62 % 0 mm 332.0 W/m2 CLR
10:43 -5.7 °C -10.1 °C 34496.6 hPa Calm     61 % 0 mm 322.0 W/m2 CLR
10:48 -5.6 °C -10.1 °C 34496.6 hPa West 15 km/h 15 km/h 60 % 0 mm 359.0 W/m2 CLR
10:53 -5.4 °C -10.1 °C 34496.6 hPa WNW 18.2 km/h 18.2 km/h 59 % 0 mm 350.0 W/m2 CLR
10:58 -5.4 °C -10.2 °C 34496.6 hPa WSW 20.9 km/h   58 % 0 mm 313.0 W/m2 CLR
11:03 -5.4 °C -10.2 °C 34496.6 hPa West 23.8 km/h 23.8 km/h 58 % 0 mm 425.0 W/m2 CLR
11:08 -5.3 °C -10.2 °C 34496.6 hPa NW 20.9 km/h 20.9 km/h 57 % 0 mm 543.0 W/m2 CLR
11:13 -5.2 °C -10.3 °C 34496.6 hPa WNW 11.9 km/h 11.9 km/h 56 % 0 mm 459.0 W/m2 CLR
11:23 -5.1 °C -10.2 °C 34496.6 hPa NW 20.9 km/h 20.9 km/h 56 % 0 mm 745.0 W/m2 CLR
11:28 -5 °C -10.2 °C 34496.6 hPa SW 15.6 km/h 16.9 km/h 56 % 0 mm 348.0 W/m2 CLR
11:33 -4.9 °C -10.1 °C 34496.6 hPa WNW 26.9 km/h 26.9 km/h 56 % 0 mm 833.0 W/m2 CLR
11:38 -4.8 °C -10.1 °C 34496.6 hPa WSW 23.8 km/h 23.8 km/h 55 % 0 mm 642.0 W/m2 CLR
11:43 -4.8 °C -10.2 °C 34496.6 hPa WSW 26.9 km/h 26.9 km/h 55 % 0 mm 802.0 W/m2 CLR
11:48 -4.8 °C -10.1 °C 34496.6 hPa WNW 29.8 km/h 29.8 km/h 55 % 0 mm 830.0 W/m2 CLR
11:53 -4.6 °C -10.1 °C 34486.4 hPa West 17.9 km/h 17.9 km/h 54 % 0 mm 772.0 W/m2 CLR
11:58 -4.4 °C -9.9 °C 34486.4 hPa NNW 23.8 km/h 23.8 km/h 54 % 0 mm 745.0 W/m2 CLR
12:03 -4.3 °C -10.1 °C 34486.4 hPa West 26.9 km/h 26.9 km/h 52 % 0 mm 758.0 W/m2 CLR
12:08 -4.3 °C -10.2 °C 34486.4 hPa WNW 20.9 km/h 20.9 km/h 52 % 0 mm 768.0 W/m2 CLR
12:13 -4.3 °C -10.3 °C 34486.4 hPa WNW 35.7 km/h 35.7 km/h 51 % 0 mm 770.0 W/m2 CLR
12:18 -4.3 °C -10.3 °C 34486.4 hPa West 29.8 km/h 29.8 km/h 51 % 0 mm 779.0 W/m2 CLR
12:23 -4.3 °C -10.3 °C 34486.4 hPa West 26.9 km/h 26.9 km/h 51 % 0 mm 788.0 W/m2 CLR
12:28 -4.3 °C -10.3 °C 34486.4 hPa NW 20.9 km/h 20.9 km/h 51 % 0 mm 782.0 W/m2 CLR
12:33 -4.1 °C -10.1 °C 34476.3 hPa WNW 6 km/h 6 km/h 51 % 0 mm 793.0 W/m2 CLR
12:38 -3.8 °C -10.1 °C 34476.3 hPa NNW 17.9 km/h 17.9 km/h 50 % 0 mm 807.0 W/m2 CLR
12:43 -3.6 °C -9.8 °C 34476.3 hPa NNW 3.1 km/h 3.1 km/h 50 % 0 mm 809.0 W/m2 CLR
12:48 -3.4 °C -9.9 °C 34476.3 hPa NW 20.9 km/h 20.9 km/h 48 % 0 mm 821.0 W/m2 CLR
12:53 -3.2 °C -9.8 °C 34476.3 hPa North 3.1 km/h   48 % 0 mm 821.0 W/m2 CLR
12:58 -3.1 °C -9.7 °C 34462.7 hPa Calm     48 % 0 mm 826.0 W/m2 CLR
13:03 -3 °C -9.8 °C 34462.7 hPa Calm     47 % 0 mm 835.0 W/m2 CLR
13:08 -3 °C -10 °C 34462.7 hPa North 11.9 km/h 11.9 km/h 46 % 0 mm 849.0 W/m2 CLR
13:13 -3 °C -9.6 °C 34462.7 hPa West 11.9 km/h 11.9 km/h 48 % 0 mm 851.0 W/m2 CLR
13:18 -3.1 °C -9.7 °C 34452.6 hPa WNW 11.9 km/h   48 % 0 mm 846.0 W/m2 CLR
13:23 -2.9 °C -9.5 °C 34462.7 hPa West 10.3 km/h 10.3 km/h 48 % 0 mm 856.0 W/m2 CLR
13:28 -2.8 °C -9.7 °C 34452.6 hPa West 15 km/h 15 km/h 47 % 0 mm 861.0 W/m2 CLR
13:33 -2.9 °C -9.7 °C 34452.6 hPa SSW 3.1 km/h   47 % 0 mm 868.0 W/m2 CLR
13:38 -2.7 °C -9.9 °C 34452.6 hPa Calm     45 % 0 mm 865.0 W/m2 CLR
13:43 -2.6 °C -9.8 °C 34452.6 hPa North 20.9 km/h 20.9 km/h 45 % 0 mm 860.0 W/m2 CLR
13:48 -2.4 °C -9.4 °C 34442.4 hPa Calm     46 % 0 mm 879.0 W/m2 CLR
13:53 -2.2 °C -9.6 °C 34442.4 hPa WNW 9 km/h 9 km/h 44 % 0 mm 882.0 W/m2 CLR
13:58 -2.1 °C -9.6 °C 34442.4 hPa Calm     44 % 0 mm 877.0 W/m2 CLR
14:03 -1.9 °C -9.6 °C 34442.4 hPa Calm     43 % 0 mm 877.0 W/m2 CLR
14:08 -1.9 °C -9.6 °C 34428.8 hPa NE 11.9 km/h 11.9 km/h 43 % 0 mm 879.0 W/m2 CLR
14:13 -1.9 °C -9.6 °C 34428.8 hPa NNE 9 km/h   43 % 0 mm 888.0 W/m2 CLR
14:18 -1.8 °C -9.7 °C 34428.8 hPa NNW 11.9 km/h 11.9 km/h 42 % 0 mm 886.0 W/m2 CLR
14:23 -1.9 °C -9.8 °C 34428.8 hPa Calm     42 % 0 mm 888.0 W/m2 CLR
14:28 -1.9 °C -9.6 °C 34428.8 hPa NE 10.3 km/h 10.3 km/h 43 % 0 mm 875.0 W/m2 CLR
14:33 -1.8 °C -9.7 °C 34428.8 hPa Calm   3.1 km/h 42 % 0 mm 874.0 W/m2 CLR
14:38 -1.7 °C -9.6 °C 34428.8 hPa North 3.1 km/h 3.1 km/h 42 % 0 mm 874.0 W/m2 CLR
14:43 -1.8 °C -9.5 °C 34418.7 hPa NNW 9 km/h   43 % 0 mm 853.0 W/m2 CLR
14:48 -1.8 °C -9.4 °C 34418.7 hPa Calm     43 % 0 mm 863.0 W/m2 CLR
14:53 -1.6 °C -9.3 °C 34418.7 hPa Calm     43 % 0 mm 863.0 W/m2 CLR
14:58 -1.3 °C -9.4 °C 34418.7 hPa East 10.3 km/h 10.3 km/h 41 % 0 mm 867.0 W/m2 CLR
15:03 -1.4 °C -9.3 °C 34418.7 hPa Calm   1.3 km/h 42 % 0 mm 868.0 W/m2 CLR
15:08 -1.3 °C -9.2 °C 34405.1 hPa ENE 9 km/h   42 % 0 mm 858.0 W/m2 CLR
15:13 -1.1 °C -9.3 °C 34405.1 hPa Calm     41 % 0 mm 867.0 W/m2 CLR
15:18 -1.1 °C -9.5 °C 34405.1 hPa ENE 20.9 km/h 20.9 km/h 40 % 0 mm 856.0 W/m2 CLR
15:23 -1.2 °C -9.6 °C 34405.1 hPa NE 25.9 km/h 25.9 km/h 40 % 0 mm 842.0 W/m2 CLR
15:28 -1.2 °C -9.6 °C 34405.1 hPa ENE 18.2 km/h 18.2 km/h 40 % 0 mm 812.0 W/m2 CLR
15:33 -1.2 °C -9.3 °C 34405.1 hPa NE 9 km/h   41 % 0 mm 837.0 W/m2 CLR
15:38 -1 °C -9.2 °C 34395 hPa NE 15.6 km/h 15.6 km/h 41 % 0 mm 803.0 W/m2 CLR
15:43 -0.9 °C -9.3 °C 34395 hPa North 3.1 km/h   40 % 0 mm 819.0 W/m2 CLR
15:45 -1 °C -9.4 °C 34395 hPa Calm     40 % 0 mm 823.0 W/m2 CLR
15:50 -0.9 °C -9.3 °C 34395 hPa North 23.8 km/h 23.8 km/h 40 % 0 mm 809.0 W/m2 CLR
15:54 -0.8 °C -9.2 °C 34395 hPa Calm     40 % 0 mm 803.0 W/m2 CLR
16:04 -0.6 °C -9.2 °C 34384.8 hPa NE 15 km/h 15 km/h 39 % 0 mm 777.0 W/m2 CLR
16:09 -0.4 °C -9.1 °C 34384.8 hPa NE 17.9 km/h 17.9 km/h 39 % 0 mm 772.0 W/m2 CLR
16:14 -0.4 °C -9.1 °C 34384.8 hPa NE 2.6 km/h 2.6 km/h 39 % 0 mm 758.0 W/m2 CLR
16:19 -0.3 °C -9 °C 34384.8 hPa Calm     39 % 0 mm 742.0 W/m2 CLR
16:24 -0.3 °C -9.2 °C 34384.8 hPa East 17.9 km/h 17.9 km/h 38 % 0 mm 661.0 W/m2 CLR
16:29 -0.6 °C -9.2 °C 34384.8 hPa NNE 23.8 km/h 23.8 km/h 39 % 0 mm 745.0 W/m2 CLR
16:34 -0.5 °C -8.9 °C 34371.3 hPa ENE 15.6 km/h 15.6 km/h 40 % 0 mm 733.0 W/m2 CLR
16:39 -0.3 °C -8.9 °C 34371.3 hPa NE 9 km/h 9 km/h 39 % 0 mm 724.0 W/m2 CLR
16:44 -0.2 °C -8.9 °C 34371.3 hPa NE 20.9 km/h 20.9 km/h 39 % 0 mm 729.0 W/m2 CLR
16:49 -0.2 °C -8.8 °C 34371.3 hPa ENE 20.9 km/h 20.9 km/h 39 % 0 mm 700.0 W/m2 CLR
16:54 -0.2 °C -8.8 °C 34361.1 hPa NE 20.9 km/h 20.9 km/h 39 % 0 mm 693.0 W/m2 CLR
16:55 -0.2 °C -8.8 °C 34361.1 hPa NE 20.9 km/h 20.9 km/h 39 % 0 mm 693.0 W/m2 CLR
17:00 0 °C -8.7 °C 34361.1 hPa ENE 29.8 km/h 29.8 km/h 39 % 0 mm 677.0 W/m2 CLR
17:05 -0.1 °C -8.5 °C 34361.1 hPa ESE 32.8 km/h 32.8 km/h 40 % 0 mm 654.0 W/m2 CLR
17:10 -0.2 °C -8.7 °C 34347.6 hPa NE 17.9 km/h 17.9 km/h 40 % 0 mm 659.0 W/m2 CLR
17:15 -0.2 °C -8.4 °C 34347.6 hPa ENE 17.9 km/h 17.9 km/h 41 % 0 mm 647.0 W/m2 CLR
17:20 0.1 °C -8 °C 34347.6 hPa NNE 20.9 km/h 20.9 km/h 42 % 0 mm 650.0 W/m2 CLR
17:30 0.2 °C -7.8 °C 34347.6 hPa NNE 3.1 km/h   42 % 0 mm 610.0 W/m2 CLR
17:35 0.3 °C -7.7 °C 34347.6 hPa Calm     42 % 0 mm 657.0 W/m2 CLR
17:40 0.4 °C -7.6 °C 34347.6 hPa East 20.9 km/h 20.9 km/h 43 % 0 mm 443.0 W/m2 CLR
17:45 0.2 °C -7.3 °C 34347.6 hPa Calm     45 % 0 mm 513.0 W/m2 CLR
17:50 0.1 °C -6.8 °C 34337.4 hPa East 29.8 km/h 29.8 km/h 48 % 0 mm 197.0 W/m2 CLR
17:55 -0.2 °C -7.3 °C 34347.6 hPa SE 23.8 km/h 23.8 km/h 47 % 0 mm 193.0 W/m2 CLR
18:00 -0.4 °C -6.7 °C 34337.4 hPa SE 33.6 km/h 33.6 km/h 51 % 0 mm 160.0 W/m2 CLR
18:05 -0.7 °C -6.8 °C 34337.4 hPa ESE 29.8 km/h 29.8 km/h 52 % 0 mm 146.0 W/m2 CLR
18:10 -0.8 °C -6.6 °C 34337.4 hPa East 29.8 km/h 29.8 km/h 54 % 0 mm 374.0 W/m2 CLR
18:15 -0.7 °C -6.4 °C 34337.4 hPa ESE 26.9 km/h 26.9 km/h 54 % 0 mm 490.0 W/m2 CLR
18:20 -0.6 °C -6.6 °C 34337.4 hPa ESE 32.8 km/h 32.8 km/h 53 % 0 mm 432.0 W/m2 CLR
18:25 -0.7 °C -6.6 °C 34337.4 hPa SSE 29.8 km/h 29.8 km/h 53 % 0 mm 455.0 W/m2 CLR
18:30 -0.7 °C -6.6 °C 34337.4 hPa ESE 35.7 km/h 35.7 km/h 53 % 0 mm 443.0 W/m2 CLR
18:35 -0.9 °C -6.6 °C 34337.4 hPa ESE 47.6 km/h 47.6 km/h 54 % 0 mm 292.0 W/m2 CLR
18:40 -1.1 °C -6.5 °C 34337.4 hPa East 33.6 km/h 33.6 km/h 56 % 0 mm 97.0 W/m2 CLR
18:45 -1.2 °C -6.6 °C 34337.4 hPa SE 47.6 km/h 47.6 km/h 56 % 0 mm 132.0 W/m2 CLR
18:50 -1.3 °C -6.6 °C 34337.4 hPa SE 38.8 km/h 38.8 km/h 57 % 0 mm 162.0 W/m2 CLR
18:55 -1.2 °C -6.6 °C 34337.4 hPa ESE 29.8 km/h 29.8 km/h 56 % 0 mm 381.0 W/m2 CLR
19:00 -1.2 °C -6.7 °C 34337.4 hPa SSE 38.8 km/h 38.8 km/h 55 % 0 mm 350.0 W/m2 CLR
19:10 -1.3 °C -6.9 °C 34337.4 hPa ESE 32.8 km/h 32.8 km/h 55 % 0 mm 278.0 W/m2 CLR
19:15 -1.4 °C -6.9 °C 34337.4 hPa SE 41.7 km/h 41.7 km/h 55 % 0 mm 246.0 W/m2 CLR
19:20 -1.4 °C -7 °C 34337.4 hPa East 38.8 km/h 38.8 km/h 55 % 0 mm 239.0 W/m2 CLR
19:25 -1.4 °C -7.2 °C 34337.4 hPa ESE 35.7 km/h 35.7 km/h 54 % 0 mm 214.0 W/m2 CLR
19:30 -1.6 °C -7.1 °C 34337.4 hPa SE 44.7 km/h 44.7 km/h 55 % 0 mm 213.0 W/m2 CLR
19:35 -1.6 °C -7.2 °C 34337.4 hPa SE 35.7 km/h 35.7 km/h 55 % 0 mm 200.0 W/m2 CLR
19:40 -1.6 °C -7.1 °C 34337.4 hPa SE 35.7 km/h 35.7 km/h 55 % 0 mm 178.0 W/m2 CLR
19:45 -1.6 °C -7.1 °C 34337.4 hPa SSE 32.8 km/h 32.8 km/h 55 % 0 mm 163.0 W/m2 CLR
19:50 -1.6 °C -7.1 °C 34337.4 hPa ESE 29.8 km/h 29.8 km/h 55 % 0 mm 149.0 W/m2 CLR
19:55 -1.7 °C -7.2 °C 34337.4 hPa SE 44.7 km/h 44.7 km/h 55 % 0 mm 137.0 W/m2 CLR
20:00 -1.8 °C -7.1 °C 34337.4 hPa SE 32.8 km/h 32.8 km/h 56 % 0 mm 116.0 W/m2 CLR
20:05 -1.8 °C -7.2 °C 34337.4 hPa SE 41.7 km/h 41.7 km/h 56 % 0 mm 100.0 W/m2 CLR
20:10 -1.8 °C -7.2 °C 34337.4 hPa ESE 29.8 km/h 29.8 km/h 56 % 0 mm 86.0 W/m2 CLR
20:15 -1.8 °C -7.2 °C 34337.4 hPa ESE 29.8 km/h 29.8 km/h 56 % 0 mm 70.0 W/m2 FEW
20:20 -1.8 °C -7.1 °C 34337.4 hPa SE 32.8 km/h 32.8 km/h 57 % 0 mm 56.0 W/m2 SCT
20:25 -1.9 °C -7.1 °C 34337.4 hPa SSE 41.7 km/h 41.7 km/h 57 % 0 mm 46.0 W/m2 SCT
20:30 -2.1 °C -7.2 °C 34337.4 hPa SE 32.8 km/h 32.8 km/h 57 % 0 mm 37.0 W/m2 BKN
20:35 -2.1 °C -7.1 °C 34337.4 hPa ESE 35.7 km/h 35.7 km/h 58 % 0 mm 26.0 W/m2 BKN
20:40 -2.2 °C -7.2 °C 34337.4 hPa SSE 26.9 km/h 26.9 km/h 58 % 0 mm 19.0 W/m2 BKN
20:45 -2.2 °C -7.3 °C 34337.4 hPa South 26.9 km/h 26.9 km/h 58 % 0 mm 16.0 W/m2 BKN
20:50 -2.3 °C -7.1 °C 34337.4 hPa SSE 20.9 km/h 20.9 km/h 59 % 0 mm 14.0 W/m2 BKN
20:55 -2.3 °C -7.2 °C 34337.4 hPa SSE 15.6 km/h 15.6 km/h 59 % 0 mm 12.0 W/m2 BKN
21:00 -2.4 °C -7.1 °C 34347.6 hPa SE 38.8 km/h 38.8 km/h 60 % 0 mm 9.0 W/m2 BKN
21:05 -2.4 °C -7.2 °C 34337.4 hPa SE 23.8 km/h 23.8 km/h 60 % 0 mm 5.0 W/m2 BKN
21:10 -2.5 °C -7.2 °C 34347.6 hPa SSE 32.8 km/h 32.8 km/h 60 % 0 mm 0.0 W/m2 OVC
21:15 -2.6 °C -7.1 °C 34347.6 hPa SSE 20.8 km/h 20.8 km/h 61 % 0 mm 0.0 W/m2 OVC
21:20 -2.6 °C -7.1 °C 34347.6 hPa SE 23.8 km/h 23.8 km/h 61 % 0 mm 0.0 W/m2 OVC
21:21 -2.6 °C -7.2 °C 34347.6 hPa SE 23.8 km/h 23.8 km/h 61 % 0 mm 0.0 W/m2 CLR
21:26 -2.7 °C -7.1 °C 34347.6 hPa SSE 29.8 km/h 29.8 km/h 62 % 0 mm 0.0 W/m2 CLR
21:31 -2.8 °C -7.1 °C 34347.6 hPa SSE 26.9 km/h 26.9 km/h 63 % 0 mm 0.0 W/m2 CLR
21:36 -2.8 °C -7.1 °C 34347.6 hPa SSE 23.8 km/h 23.8 km/h 63 % 0 mm 0.0 W/m2 CLR
21:41 -2.9 °C -7.1 °C 34347.6 hPa SE 17.9 km/h 17.9 km/h 63 % 0 mm 0.0 W/m2 CLR
21:46 -2.9 °C -7.1 °C 34347.6 hPa SE 29.8 km/h 29.8 km/h 64 % 0 mm 0.0 W/m2 CLR
21:51 -3 °C -7.1 °C 34361.1 hPa SE 20.8 km/h 20.8 km/h 64 % 0 mm 0.0 W/m2 CLR
21:56 -3.1 °C -7.2 °C 34361.1 hPa SSE 20.8 km/h 20.8 km/h 64 % 0 mm 0.0 W/m2 CLR
22:01 -3.1 °C -7.1 °C 34361.1 hPa SE 15 km/h 15 km/h 65 % 0 mm 0.0 W/m2 CLR
22:06 -3.2 °C -7.1 °C 34361.1 hPa SSE 23.8 km/h 23.8 km/h 65 % 0 mm 0.0 W/m2 CLR
22:11 -3.2 °C -7.1 °C 34361.1 hPa SE 10.3 km/h 10.3 km/h 65 % 0 mm 0.0 W/m2 CLR
22:16 -3.2 °C -7.2 °C 34371.3 hPa Calm     65 % 0 mm 0.0 W/m2 CLR
22:21 -3.3 °C -7.1 °C 34371.3 hPa SSE 17.9 km/h 17.9 km/h 66 % 0 mm 0.0 W/m2 CLR
22:26 -3.3 °C -7.1 °C 34371.3 hPa SE 11.9 km/h 11.9 km/h 66 % 0 mm 0.0 W/m2 CLR
22:31 -3.3 °C -7.1 °C 34371.3 hPa Calm     66 % 0 mm 0.0 W/m2 CLR
22:36 -3.3 °C -7.1 °C 34371.3 hPa SSE 11.9 km/h   66 % 0 mm 0.0 W/m2 CLR
22:41 -3.4 °C -7.2 °C 34384.8 hPa Calm     66 % 0 mm 0.0 W/m2 CLR
22:46 -3.4 °C -7.2 °C 34384.8 hPa Calm     66 % 0 mm 0.0 W/m2 CLR
22:51 -3.4 °C -7.2 °C 34371.3 hPa SE 9 km/h   66 % 0 mm 0.0 W/m2 CLR
22:56 -3.4 °C -7.2 °C 34384.8 hPa SSE 11.9 km/h 11.9 km/h 66 % 0 mm 0.0 W/m2 CLR
23:01 -3.4 °C -7.2 °C 34384.8 hPa South 3.1 km/h 3.1 km/h 66 % 0 mm 0.0 W/m2 CLR
23:06 -3.4 °C -7.2 °C 34384.8 hPa SE 12.9 km/h 12.9 km/h 66 % 0 mm 0.0 W/m2 CLR
23:11 -3.4 °C -7.2 °C 34371.3 hPa Calm     66 % 0 mm 0.0 W/m2 CLR
23:21 -3.5 °C -7.2 °C 34371.3 hPa Calm     67 % 0 mm 0.0 W/m2 CLR
23:26 -3.6 °C -7.2 °C 34361.1 hPa SSE 15 km/h 15 km/h 67 % 0 mm 0.0 W/m2 CLR
23:31 -3.6 °C -7.2 °C 34371.3 hPa SSE 15 km/h 15 km/h 67 % 0 mm 0.0 W/m2 CLR
23:36 -3.6 °C -7.1 °C 34371.3 hPa SE 17.9 km/h 17.9 km/h 68 % 0 mm 0.0 W/m2 CLR
23:41 -3.6 °C -7.1 °C 34371.3 hPa SE 11.9 km/h 11.9 km/h 68 % 0 mm 0.0 W/m2 CLR
23:46 -3.6 °C -7.1 °C 34371.3 hPa Calm     68 % 0 mm 0.0 W/m2 CLR
23:51 -3.6 °C -7.1 °C 34371.3 hPa Calm     68 % 0 mm 0.0 W/m2 CLR
23:56 -3.6 °C -7.1 °C 34371.3 hPa SSE 10.3 km/h 10.3 km/h 68 % 0 mm 0.0 W/m2 CLR
Lo Temps de Massalio
Compliments of Weather Underground - 1.25 mb